GB-0374 weather

Viewfield Airstrip
Scotland, United Kingdom

Public forecast

Using degrees Celsius for public forecast. Weather courtesy of forecast.io.

METAR (pilot weather report)

Closest report is RAF Lossiemouth, 5.4 nm (10.0 km) WNW. Retrieved 2019/05/24 05:50 UTC (35 minutes ago):

EGQS 240550Z 30012KT 9999 SCT022 BKN028 09/05 Q1014 WHT TEMPO FEW022 BLU

TAF (pilot weather forecast)

Closest forecast is RAF Lossiemouth, 5.4 nm (10.0 km) WNW. Retrieved 2019/05/24 06:36 UTC (0 seconds ago):

TAF EGQS 240423Z 2406/2424 28015G25KT 9999 SCT020 TEMPO 2406/2420 FEW022 PROB30 TEMPO 2415/2422 7000 -RA BECMG 2421/2424 30012KT